18 | 02 | 2018

Daten Vortag

Wetterdaten von 10m Höhe gemessen, Station2

Datum / Zeit Intervall min Luftfeuchte % Temperatur °C absolut Luftdruck hPa Wind m/s Windbö m/s Richtung Relative Luftdruck hPa Taupunkt °C Windchill °C Niederschlag mm
17-02-2018 00:15 5 82 3.6 1023.6 22.0 24.5 NW 1025.8 0.8 -5.3 0.0
17-02-2018 00:20 5 82 3.6 1023.8 15.8 20.9 W 1026.0 0.8 -3.0 0.0
17-02-2018 00:25 5 82 3.5 1023.9 14.8 17.3 NW 1026.1 0.7 -2.6 0.0
17-02-2018 00:30 5 82 3.5 1023.9 11.2 14.8 W 1026.1 0.7 -0.7 0.0
17-02-2018 00:35 5 82 3.5 1023.7 15.8 19.4 NW 1025.9 0.7 -3.1 0.0
17-02-2018 00:40 5 82 3.6 1023.8 17.3 19.4 W 1026.0 0.8 -3.6 0.0
17-02-2018 00:45 5 82 3.5 1023.7 18.4 20.9 W 1025.9 0.7 -4.2 0.0
17-02-2018 00:50 5 83 3.6 1023.7 14.8 18.4 W 1025.9 1.0 -2.5 0.0
17-02-2018 00:55 5 82 3.5 1023.9 17.3 20.9 W 1026.1 0.7 -3.7 0.0
17-02-2018 01:00 5 83 3.5 1023.9 19.4 24.5 W 1026.1 0.9 -4.6 0.0
17-02-2018 01:05 5 83 3.5 1023.9 17.3 19.4 W 1026.1 0.9 -3.7 0.0
17-02-2018 01:10 5 83 3.5 1023.9 15.8 18.4 W 1026.1 0.9 -3.1 0.0
17-02-2018 01:15 5 83 3.4 1023.9 14.8 18.4 W 1026.1 0.8 -2.8 0.0
17-02-2018 01:20 5 83 3.5 1023.8 22.0 27.0 NW 1026.0 0.9 -5.4 0.0
17-02-2018 01:25 5 83 3.5 1023.8 20.9 24.5 NW 1026.0 0.9 -5.1 0.0
17-02-2018 01:30 5 83 3.5 1023.8 18.4 20.9 NW 1026.0 0.9 -4.2 0.0
17-02-2018 01:35 5 83 3.5 1024.0 19.4 25.6 W 1026.2 0.9 -4.6 0.0
17-02-2018 01:40 5 83 3.5 1023.9 19.4 23.4 NW 1026.1 0.9 -4.6 0.0
17-02-2018 01:45 5 83 3.4 1023.8 17.3 23.4 W 1026.0 0.8 -3.9 0.0
17-02-2018 01:50 5 83 3.4 1023.8 14.8 19.4 NW 1026.0 0.8 -2.8 0.0
17-02-2018 01:55 5 84 3.3 1023.9 14.8 18.4 NW 1026.1 0.9 -2.9 0.0
17-02-2018 02:00 5 84 3.3 1023.9 17.3 19.4 W 1026.1 0.9 -4.0 0.0
17-02-2018 02:05 5 84 3.3 1023.9 14.8 18.4 NW 1026.1 0.9 -2.9 0.0
17-02-2018 02:10 5 84 3.4 1024.0 15.8 19.4 NW 1026.2 1.0 -3.3 0.0
17-02-2018 02:15 5 84 3.3 1024.1 14.8 18.4 W 1026.3 0.9 -2.9 0.0
17-02-2018 02:20 5 85 3.3 1024.0 14.8 19.4 W 1026.2 1.0 -2.9 0.0
17-02-2018 02:25 5 85 3.3 1024.0 15.8 19.4 W 1026.2 1.0 -3.4 0.0
17-02-2018 02:30 5 85 3.3 1024.0 15.8 19.4 NW 1026.2 1.0 -3.4 0.0
17-02-2018 02:35 5 85 3.3 1023.9 19.4 23.4 NW 1026.1 1.0 -4.8 0.0
17-02-2018 02:40 5 85 3.3 1023.7 20.9 27.0 W 1025.9 1.0 -5.3 0.0
17-02-2018 02:45 5 85 3.3 1024.0 19.4 23.4 NW 1026.2 1.0 -4.8 0.0
17-02-2018 02:50 5 85 3.2 1024.0 19.4 24.5 NW 1026.2 0.9 -5.0 0.0
17-02-2018 02:55 5 85 3.2 1023.9 19.4 25.6 NW 1026.1 0.9 -5.0 0.0
17-02-2018 03:00 5 85 3.2 1023.9 17.3 20.9 W 1026.1 0.9 -4.1 0.0
17-02-2018 03:05 5 85 3.2 1023.9 15.8 20.9 W 1026.1 0.9 -3.5 0.0
17-02-2018 03:10 5 85 3.2 1023.9 15.8 19.4 NW 1026.1 0.9 -3.5 0.0
17-02-2018 03:15 5 85 3.1 1023.8 12.2 14.8 W 1026.0 0.8 -1.8 0.0
17-02-2018 03:20 5 85 3.0 1023.8 14.8 17.3 NW 1026.0 0.7 -3.2 0.0
17-02-2018 03:25 5 85 3.0 1023.8 17.3 20.9 NW 1026.0 0.7 -4.4 0.0
17-02-2018 03:30 5 85 3.0 1023.7 12.2 14.8 NW 1025.9 0.7 -1.9 0.0
17-02-2018 03:35 5 85 3.0 1023.7 14.8 18.4 NW 1025.9 0.7 -3.2 0.0
17-02-2018 03:40 5 85 3.0 1023.8 14.8 17.3 W 1026.0 0.7 -3.2 0.0
17-02-2018 03:45 5 85 3.0 1023.6 11.2 14.8 W 1025.8 0.7 -1.3 0.0
17-02-2018 03:50 5 81 2.9 1023.5 12.2 14.8 W 1025.7 0.0 -2.1 0.0
17-02-2018 03:55 5 81 2.9 1023.5 12.2 15.8 W 1025.7 0.0 -2.1 0.0
17-02-2018 04:00 5 81 2.9 1023.4 13.3 17.3 NW 1025.6 0.0 -2.6 0.0
17-02-2018 04:05 5 85 3.0 1023.6 9.7 12.2 W 1025.8 0.7 -0.4 0.0
17-02-2018 04:10 5 81 2.9 1023.5 8.6 11.2 NW 1025.7 0.0 0.3 0.0
17-02-2018 04:15 5 81 2.9 1023.5 9.7 14.8 NW 1025.7 0.0 -0.5 0.0
17-02-2018 04:20 5 81 2.9 1023.5 12.2 14.8 W 1025.7 0.0 -2.1 0.0
17-02-2018 04:25 5 81 2.9 1023.4 12.2 14.8 NW 1025.6 0.0 -2.1 0.0
17-02-2018 04:30 5 81 2.9 1023.3 13.3 17.3 NW 1025.5 0.0 -2.6 0.0
17-02-2018 04:35 5 82 2.9 1023.4 11.2 15.8 NW 1025.6 0.1 -1.4 0.0
17-02-2018 04:40 5 82 2.9 1023.1 11.2 13.3 W 1025.3 0.1 -1.4 0.0
17-02-2018 04:45 5 82 2.8 1023.1 9.7 13.3 W 1025.3 0.0 -0.6 0.0
17-02-2018 04:50 5 82 2.8 1023.3 11.2 13.3 NW 1025.5 0.0 -1.5 0.0
17-02-2018 04:55 5 82 2.8 1023.2 11.2 14.8 W 1025.4 0.0 -1.5 0.0
17-02-2018 05:00 5 82 2.8 1023.1 9.7 12.2 W 1025.3 0.0 -0.6 0.0
17-02-2018 05:05 5 82 2.8 1023.2 8.6 11.2 W 1025.4 0.0 0.2 0.0
17-02-2018 05:10 5 82 2.7 1023.2 8.6 12.2 W 1025.4 -0.1 0.1 0.0
17-02-2018 05:15 5 82 2.7 1023.3 13.3 17.3 W 1025.5 -0.1 -2.9 0.0
17-02-2018 05:20 5 82 2.7 1023.2 9.7 12.2 NW 1025.4 -0.1 -0.7 0.0
17-02-2018 05:25 5 82 2.7 1023.2 13.3 15.8 NW 1025.4 -0.1 -2.9 0.0
17-02-2018 05:30 5 82 2.7 1023.2 14.8 17.3 NW 1025.4 -0.1 -3.6 0.0
17-02-2018 05:35 5 82 2.6 1023.3 12.2 13.3 W 1025.5 -0.2 -2.4 0.0
17-02-2018 05:40 5 82 2.6 1023.2 12.2 17.3 W 1025.4 -0.2 -2.4 0.0
17-02-2018 05:45 5 82 2.6 1023.3 11.2 15.8 W 1025.5 -0.2 -1.8 0.0
17-02-2018 05:50 5 82 2.6 1023.3 13.3 14.8 W 1025.5 -0.2 -3.0 0.0
17-02-2018 05:55 5 82 2.6 1023.4 9.7 13.3 W 1025.6 -0.2 -0.8 0.0
17-02-2018 06:00 5 82 2.5 1023.1 9.7 12.2 W 1025.3 -0.3 -0.9 0.0
17-02-2018 06:05 5 82 2.5 1023.2 12.2 14.8 W 1025.4 -0.3 -2.5 0.0
17-02-2018 06:10 5 82 2.5 1023.1 11.2 13.3 NW 1025.3 -0.3 -1.9 0.0
17-02-2018 06:15 5 82 2.5 1023.0 9.7 13.3 NW 1025.2 -0.3 -0.9 0.0
17-02-2018 06:20 5 82 2.4 1023.1 8.6 11.2 W 1025.3 -0.4 -0.3 0.0
17-02-2018 06:25 5 82 2.4 1023.0 8.6 11.2 W 1025.2 -0.4 -0.3 0.0
17-02-2018 06:30 5 82 2.4 1023.0 11.2 12.2 NW 1025.2 -0.4 -2.0 0.0
17-02-2018 06:35 5 82 2.4 1023.1 7.2 9.7 W 1025.3 -0.4 0.9 0.0
17-02-2018 06:40 5 82 2.4 1023.2 6.1 7.2 NW 1025.4 -0.4 2.4 0.0
17-02-2018 06:45 5 82 2.4 1023.1 6.1 7.2 NW 1025.3 -0.4 2.4 0.0
17-02-2018 06:50 5 82 2.3 1023.2 6.1 7.2 NW 1025.4 -0.5 2.3 0.0
17-02-2018 06:55 5 82 2.3 1023.2 6.1 7.2 NW 1025.4 -0.5 2.3 0.0
17-02-2018 07:00 5 83 2.3 1023.2 5.0 6.1 W 1025.4 -0.3 2.3 0.0
17-02-2018 07:05 5 83 2.2 1023.3 5.0 6.1 W 1025.5 -0.4 2.2 0.0
17-02-2018 07:10 5 83 2.3 1023.2 6.1 8.6 W 1025.4 -0.3 2.3 0.0
17-02-2018 07:15 5 83 2.3 1023.4 7.2 9.7 NWW 1025.6 -0.3 0.8 0.0
17-02-2018 07:20 5 83 2.3 1023.4 7.2 9.7 W 1025.6 -0.3 0.8 0.0
17-02-2018 07:25 5 83 2.3 1023.6 6.1 7.2 W 1025.8 -0.3 2.3 0.0
17-02-2018 07:30 5 83 2.3 1023.6 7.2 8.6 W 1025.8 -0.3 0.8 0.0
17-02-2018 07:35 5 83 2.3 1023.7 6.1 7.2 NW 1025.9 -0.3 2.3 0.0
17-02-2018 07:40 5 83 2.3 1023.7 5.0 7.2 W 1025.9 -0.3 2.3 0.0
17-02-2018 07:45 5 83 2.3 1023.5 6.1 8.6 NW 1025.7 -0.3 2.3 0.0
17-02-2018 07:50 5 83 2.3 1023.7 6.1 8.6 W 1025.9 -0.3 2.3 0.0
17-02-2018 07:55 5 83 2.3 1023.6 6.1 7.2 W 1025.8 -0.3 2.3 0.0
17-02-2018 08:00 5 83 2.3 1023.7 7.2 11.2 W 1025.9 -0.3 0.8 0.0
17-02-2018 08:05 5 83 2.3 1023.7 7.2 11.2 W 1025.9 -0.3 0.8 0.0
17-02-2018 08:10 5 83 2.3 1023.8 8.6 9.7 W 1026.0 -0.3 -0.4 0.0
17-02-2018 08:15 5 83 2.3 1023.9 6.1 7.2 NW 1026.1 -0.3 2.3 0.0
17-02-2018 08:20 5 83 2.2 1023.8 7.2 8.6 W 1026.0 -0.4 0.7 0.0
17-02-2018 08:25 5 83 2.2 1023.8 6.1 8.6 W 1026.0 -0.4 2.2 0.0
17-02-2018 08:30 5 83 2.2 1023.8 6.1 7.2 W 1026.0 -0.4 2.2 0.0
17-02-2018 08:35 5 83 2.2 1023.9 5.0 6.1 W 1026.1 -0.4 2.2 0.0
17-02-2018 08:40 5 83 2.2 1023.8 7.2 8.6 NW 1026.0 -0.4 0.7 0.0
17-02-2018 08:45 5 83 2.2 1023.8 6.1 8.6 SWW 1026.0 -0.4 2.2 0.0
17-02-2018 08:50 5 83 2.3 1024.0 2.5 3.6 SW 1026.2 -0.3 2.3 0.0
17-02-2018 08:55 5 83 2.3 1023.9 3.6 5.0 W 1026.1 -0.3 2.3 0.0
17-02-2018 09:00 5 83 2.4 1023.7 3.6 5.0 W 1025.9 -0.2 2.4 0.0
17-02-2018 09:05 5 83 2.4 1023.9 6.1 8.6 SW 1026.1 -0.2 2.4 0.0
17-02-2018 09:10 5 83 2.4 1023.9 9.7 12.2 W 1026.1 -0.2 -1.0 0.0
17-02-2018 09:15 5 83 2.4 1023.8 11.2 14.8 W 1026.0 -0.2 -2.0 0.0
17-02-2018 09:20 5 83 2.4 1023.7 11.2 14.8 SW 1025.9 -0.2 -2.0 0.0
17-02-2018 09:25 5 83 2.3 1023.8 14.8 18.4 SWW 1026.0 -0.3 -4.1 0.0
17-02-2018 09:30 5 83 2.4 1023.8 3.6 6.1 W 1026.0 -0.2 2.4 0.0
17-02-2018 09:35 5 83 2.4 1024.1 2.5 5.0 NW 1026.3 -0.2 2.4 0.0
17-02-2018 09:40 5 83 2.6 1023.9 0.0 0.0 NW 1026.1 0.0 2.6 0.0
17-02-2018 09:45 5 83 2.8 1023.8 2.5 3.6 W 1026.0 0.2 2.8 0.0
17-02-2018 09:50 5 83 2.7 1023.7 6.1 7.2 W 1025.9 0.1 2.7 0.0
17-02-2018 09:55 5 83 2.7 1023.9 7.2 9.7 W 1026.1 0.1 1.2 0.0
17-02-2018 10:00 5 83 2.7 1023.8 7.2 8.6 W 1026.0 0.1 1.2 0.0
17-02-2018 10:05 5 82 2.8 1023.8 3.6 5.0 SWW 1026.0 0.0 2.8 0.0
17-02-2018 10:10 5 82 2.9 1023.7 2.5 5.0 SWW 1025.9 0.1 2.9 0.0
17-02-2018 10:15 5 86 3.0 1023.8 2.5 3.6 SWW 1026.0 0.9 3.0 0.0
17-02-2018 10:20 5 86 3.1 1023.8 1.1 2.5 SW 1026.0 1.0 3.1 0.0
17-02-2018 10:25 5 86 3.2 1023.9 1.1 2.5 NWW 1026.1 1.1 3.2 0.0
17-02-2018 10:30 5 86 3.4 1024.0 0.0 0.0 NW 1026.2 1.3 3.4 0.0
17-02-2018 10:35 5 86 3.6 1023.8 1.1 2.5 NW 1026.0 1.5 3.6 0.0
17-02-2018 10:40 5 86 3.6 1023.7 2.5 3.6 SW 1025.9 1.5 3.6 0.0
17-02-2018 10:45 5 86 3.7 1023.8 1.1 2.5 NW 1026.0 1.6 3.7 0.0
17-02-2018 10:50 5 86 3.9 1023.8 0.0 2.5 NW 1026.0 1.8 3.9 0.0
17-02-2018 10:55 5 85 4.0 1023.8 2.5 3.6 NW 1026.0 1.7 4.0 0.0
17-02-2018 11:00 5 84 4.2 1024.0 0.0 1.1 NW 1026.2 1.7 4.2 0.0
17-02-2018 11:05 5 84 4.3 1023.8 2.5 3.6 N 1026.0 1.8 4.3 0.0
17-02-2018 11:10 5 84 4.3 1023.8 1.1 3.6 NW 1026.0 1.8 4.3 0.0
17-02-2018 11:15 5 83 4.3 1023.8 1.1 2.5 NW 1026.0 1.7 4.3 0.0
17-02-2018 11:20 5 81 4.3 1024.0 1.1 2.5 NW 1026.2 1.3 4.3 0.0
17-02-2018 11:25 5 81 4.2 1023.9 1.1 2.5 NW 1026.1 1.2 4.2 0.0
17-02-2018 11:30 5 80 4.3 1023.9 1.1 2.5 NW 1026.1 1.2 4.3 0.0
17-02-2018 11:35 5 80 4.4 1024.0 2.5 3.6 W 1026.2 1.3 4.4 0.0
17-02-2018 11:40 5 80 4.4 1024.0 2.5 3.6 SWW 1026.2 1.3 4.4 0.0
17-02-2018 11:45 5 80 4.3 1024.0 1.1 2.5 NW 1026.2 1.2 4.3 0.0
17-02-2018 11:50 5 80 4.3 1023.9 3.6 3.6 W 1026.1 1.2 4.3 0.0
17-02-2018 11:55 5 81 4.3 1023.9 1.1 3.6 SW 1026.1 1.3 4.3 0.0
17-02-2018 12:00 5 81 4.4 1023.9 2.5 2.5 W 1026.1 1.4 4.4 0.0
17-02-2018 12:05 5 81 4.4 1024.0 2.5 2.5 W 1026.2 1.4 4.4 0.0
17-02-2018 12:10 5 81 4.6 1023.9 2.5 5.0 NW 1026.1 1.6 4.6 0.0
17-02-2018 12:15 5 80 4.6 1023.9 2.5 5.0 W 1026.1 1.5 4.6 0.0
17-02-2018 12:20 5 80 4.6 1023.9 2.5 3.6 W 1026.1 1.5 4.6 0.0
17-02-2018 12:25 5 80 4.7 1023.9 6.1 7.2 W 1026.1 1.6 4.7 0.0
17-02-2018 12:30 5 79 4.6 1023.8 7.2 8.6 NW 1026.0 1.3 3.2 0.0
17-02-2018 12:35 5 78 4.7 1023.7 6.1 8.6 W 1025.9 1.2 4.7 0.0
17-02-2018 12:40 5 77 4.8 1023.8 6.1 7.2 W 1026.0 1.1 4.8 0.0
17-02-2018 12:45 5 77 4.8 1023.7 9.7 12.2 W 1025.9 1.1 1.6 0.0
17-02-2018 12:50 5 76 4.8 1023.6 8.6 9.7 W 1025.8 0.9 2.3 0.0
17-02-2018 12:55 5 74 5.1 1023.5 5.0 7.2 W 1025.7 0.9 5.1 0.0
17-02-2018 13:00 5 74 5.2 1023.6 5.0 6.1 NW 1025.8 1.0 5.2 0.0
17-02-2018 13:05 5 73 5.3 1023.7 3.6 5.0 NWW 1025.9 0.9 5.3 0.0
17-02-2018 13:10 5 73 5.4 1023.6 5.0 6.1 NW 1025.8 1.0 5.4 0.0
17-02-2018 13:15 5 73 5.4 1023.7 2.5 5.0 NW 1025.9 1.0 5.4 0.0
17-02-2018 13:20 5 73 5.4 1023.7 5.0 7.2 N 1025.9 1.0 5.4 0.0
17-02-2018 13:25 5 73 5.4 1023.8 6.1 8.6 NW 1026.0 1.0 5.4 0.0
17-02-2018 13:30 5 73 5.4 1023.8 6.1 8.6 N 1026.0 1.0 5.4 0.0
17-02-2018 13:35 5 72 5.3 1023.8 5.0 6.1 NW 1026.0 0.7 5.3 0.0
17-02-2018 13:40 5 73 5.3 1023.7 5.0 6.1 NW 1025.9 0.9 5.3 0.0
17-02-2018 13:45 5 73 5.3 1023.8 5.0 6.1 N 1026.0 0.9 5.3 0.0
17-02-2018 13:50 5 73 5.4 1023.8 3.6 5.0 N 1026.0 1.0 5.4 0.0
17-02-2018 13:55 5 73 5.4 1023.8 2.5 5.0 NW 1026.0 1.0 5.4 0.0
17-02-2018 14:00 5 73 5.4 1023.7 3.6 5.0 W 1025.9 1.0 5.4 0.0
17-02-2018 14:05 5 73 5.4 1023.7 3.6 5.0 W 1025.9 1.0 5.4 0.0
17-02-2018 14:10 5 74 5.3 1023.7 3.6 5.0 N 1025.9 1.0 5.3 0.0
17-02-2018 14:15 5 74 5.3 1023.7 2.5 3.6 W 1025.9 1.0 5.3 0.0
17-02-2018 14:20 5 74 5.3 1023.7 3.6 5.0 NW 1025.9 1.0 5.3 0.0
17-02-2018 14:25 5 74 5.2 1023.7 3.6 5.0 NW 1025.9 1.0 5.2 0.0
17-02-2018 14:30 5 73 5.1 1023.8 5.0 6.1 NW 1026.0 0.7 5.1 0.0
17-02-2018 14:35 5 74 5.1 1023.7 6.1 7.2 NW 1025.9 0.9 5.1 0.0
17-02-2018 14:40 5 74 5.0 1023.8 5.0 6.1 NWW 1026.0 0.8 5.0 0.0
17-02-2018 14:46 5 75 5.0 1023.7 5.0 7.2 NW 1025.9 0.9 5.0 0.0
17-02-2018 14:51 5 75 5.0 1023.7 6.1 8.6 NW 1025.9 0.9 5.0 0.0
17-02-2018 14:56 5 76 4.9 1023.8 7.2 7.2 NW 1026.0 1.0 3.5 0.0
17-02-2018 15:01 5 75 4.8 1023.8 6.1 8.6 NW 1026.0 0.8 4.8 0.0
17-02-2018 15:06 5 75 4.8 1023.9 5.0 6.1 NW 1026.1 0.8 4.8 0.0
17-02-2018 15:11 5 75 4.7 1023.8 5.0 6.1 NW 1026.0 0.7 4.7 0.0
17-02-2018 15:16 5 76 4.6 1023.9 6.1 7.2 NW 1026.1 0.7 4.6 0.0
17-02-2018 15:21 5 76 4.6 1023.9 5.0 6.1 NW 1026.1 0.7 4.6 0.0
17-02-2018 15:26 5 75 4.6 1023.9 5.0 6.1 NW 1026.1 0.6 4.6 0.0
17-02-2018 15:31 5 75 4.6 1023.9 5.0 6.1 NW 1026.1 0.6 4.6 0.0
17-02-2018 15:36 5 74 4.6 1023.9 3.6 5.0 NW 1026.1 0.4 4.6 0.0
17-02-2018 15:41 5 74 4.6 1024.0 3.6 6.1 NW 1026.2 0.4 4.6 0.0
17-02-2018 15:46 5 74 4.6 1024.2 2.5 3.6 NW 1026.4 0.4 4.6 0.0
17-02-2018 15:51 5 74 4.6 1024.3 1.1 2.5 NW 1026.5 0.4 4.6 0.0
17-02-2018 15:56 5 74 4.6 1024.3 2.5 6.1 NW 1026.5 0.4 4.6 0.0
17-02-2018 16:01 5 74 4.5 1024.3 3.6 5.0 NW 1026.5 0.3 4.5 0.0
17-02-2018 16:06 5 74 4.5 1024.3 3.6 5.0 NW 1026.5 0.3 4.5 0.0
17-02-2018 16:11 5 75 4.3 1024.3 3.6 5.0 NW 1026.5 0.3 4.3 0.0
17-02-2018 16:16 5 75 4.1 1024.4 2.5 5.0 N 1026.6 0.1 4.1 0.0
17-02-2018 16:21 5 75 4.0 1024.3 5.0 7.2 NW 1026.5 0.0 4.0 0.0
17-02-2018 16:26 5 75 4.1 1024.3 3.6 5.0 W 1026.5 0.1 4.1 0.0
17-02-2018 16:31 5 75 4.0 1024.3 2.5 3.6 NW 1026.5 0.0 4.0 0.0
17-02-2018 16:36 5 75 3.9 1024.2 2.5 3.6 W 1026.4 -0.1 3.9 0.0
17-02-2018 16:41 5 71 4.0 1024.4 3.6 5.0 NW 1026.6 -0.8 4.0 0.0
17-02-2018 16:46 5 69 4.1 1024.4 3.6 3.6 W 1026.6 -1.1 4.1 0.0
17-02-2018 16:51 5 69 4.1 1024.3 1.1 2.5 W 1026.5 -1.1 4.1 0.0
17-02-2018 16:56 5 69 4.0 1024.4 2.5 3.6 W 1026.6 -1.2 4.0 0.0
17-02-2018 17:01 5 68 4.0 1024.3 2.5 5.0 NW 1026.5 -1.4 4.0 0.0
17-02-2018 17:06 5 69 3.9 1024.4 2.5 3.6 NW 1026.6 -1.3 3.9 0.0
17-02-2018 17:11 5 67 4.0 1024.4 3.6 5.0 N 1026.6 -1.6 4.0 0.0
17-02-2018 17:16 5 70 3.9 1024.5 3.6 3.6 NW 1026.7 -1.1 3.9 0.0
17-02-2018 17:21 5 69 3.9 1024.5 2.5 5.0 W 1026.7 -1.3 3.9 0.0
17-02-2018 17:26 5 67 4.0 1024.6 2.5 3.6 W 1026.8 -1.6 4.0 0.0
17-02-2018 17:31 5 67 4.0 1024.7 0.0 0.0 W 1026.9 -1.6 4.0 0.0
17-02-2018 17:36 5 68 3.9 1024.7 2.5 3.6 NW 1026.9 -1.5 3.9 0.0
17-02-2018 17:41 5 67 4.0 1024.7 0.0 1.1 NWW 1026.9 -1.6 4.0 0.0
17-02-2018 17:46 5 69 3.8 1024.7 1.1 2.5 N 1026.9 -1.4 3.8 0.0
17-02-2018 17:51 5 70 3.6 1024.7 0.0 0.0 N 1026.9 -1.4 3.6 0.0
17-02-2018 17:56 5 70 3.5 1024.7 0.0 0.0 N 1026.9 -1.5 3.5 0.0
17-02-2018 18:01 5 71 3.5 1024.7 1.1 2.5 N 1026.9 -1.3 3.5 0.0
17-02-2018 18:06 5 71 3.5 1024.7 1.1 2.5 N 1026.9 -1.3 3.5 0.0
17-02-2018 18:11 5 71 3.4 1024.8 2.5 3.6 W 1027.0 -1.4 3.4 0.0
17-02-2018 18:16 5 72 3.3 1024.8 3.6 5.0 NWW 1027.0 -1.3 3.3 0.0
17-02-2018 18:21 5 72 3.3 1024.9 3.6 6.1 N 1027.1 -1.3 3.3 0.0
17-02-2018 18:26 5 73 3.4 1024.9 5.0 6.1 NW 1027.1 -1.0 3.4 0.0
17-02-2018 18:31 5 73 3.3 1024.9 6.1 7.2 W 1027.1 -1.1 3.3 0.0
17-02-2018 18:36 5 75 3.1 1024.9 5.0 7.2 W 1027.1 -0.9 3.1 0.0
17-02-2018 18:41 5 71 2.9 1024.8 3.6 6.1 NE 1027.0 -1.8 2.9 0.0
17-02-2018 18:46 5 71 2.8 1025.0 0.0 0.0 NEE 1027.2 -1.9 2.8 0.0
17-02-2018 18:51 5 72 2.8 1025.1 3.6 5.0 NWW 1027.3 -1.7 2.8 0.0
17-02-2018 18:56 5 72 2.9 1025.1 2.5 5.0 NE 1027.3 -1.6 2.9 0.0
17-02-2018 19:01 5 72 2.8 1025.2 1.1 2.5 NWW 1027.4 -1.7 2.8 0.0
17-02-2018 19:06 5 72 2.7 1025.2 2.5 3.6 E 1027.4 -1.8 2.7 0.0
17-02-2018 19:11 5 73 2.7 1025.3 3.6 6.1 NE 1027.5 -1.7 2.7 0.0
17-02-2018 19:16 5 73 2.8 1025.2 0.0 0.0 NE 1027.4 -1.6 2.8 0.0
17-02-2018 19:21 5 73 2.8 1025.3 0.0 0.0 NE 1027.5 -1.6 2.8 0.0
17-02-2018 19:26 5 73 2.7 1025.2 2.5 5.0 W 1027.4 -1.7 2.7 0.0
17-02-2018 19:31 5 73 2.8 1025.3 3.6 3.6 NW 1027.5 -1.6 2.8 0.0
17-02-2018 19:36 5 73 2.8 1025.2 1.1 2.5 W 1027.4 -1.6 2.8 0.0
17-02-2018 19:41 5 73 2.7 1025.1 1.1 3.6 S 1027.3 -1.7 2.7 0.0
17-02-2018 19:46 5 73 2.7 1025.3 5.0 7.2 NE 1027.5 -1.7 2.7 0.0
17-02-2018 19:51 5 73 2.5 1025.3 3.6 5.0 NE 1027.5 -1.8 2.5 0.0
17-02-2018 19:56 5 73 2.5 1025.4 0.0 0.0 E 1027.6 -1.8 2.5 0.0
17-02-2018 20:01 5 74 2.4 1025.4 0.0 1.1 E 1027.6 -1.8 2.4 0.0
17-02-2018 20:06 5 74 2.3 1025.3 0.0 0.0 E 1027.5 -1.9 2.3 0.0
17-02-2018 20:11 5 74 2.3 1025.5 0.0 0.0 E 1027.7 -1.9 2.3 0.0
17-02-2018 20:16 5 74 2.3 1025.3 0.0 0.0 E 1027.5 -1.9 2.3 0.0
17-02-2018 20:21 5 75 2.3 1025.3 0.0 0.0 E 1027.5 -1.7 2.3 0.0
17-02-2018 20:26 5 75 2.3 1025.3 1.1 2.5 E 1027.5 -1.7 2.3 0.0
17-02-2018 20:31 5 75 2.2 1025.4 0.0 0.0 E 1027.6 -1.8 2.2 0.0
17-02-2018 20:36 5 75 2.2 1025.3 0.0 0.0 E 1027.5 -1.8 2.2 0.0
17-02-2018 20:41 5 75 2.0 1025.5 0.0 0.0 E 1027.7 -2.0 2.0 0.0
17-02-2018 20:46 5 75 2.0 1025.3 0.0 0.0 E 1027.5 -2.0 2.0 0.0
17-02-2018 20:51 5 77 1.9 1025.4 0.0 0.0 E 1027.6 -1.7 1.9 0.0
17-02-2018 20:56 5 76 2.0 1025.5 2.5 2.5 W 1027.7 -1.8 2.0 0.0
17-02-2018 21:01 5 76 2.0 1025.5 2.5 3.6 W 1027.7 -1.8 2.0 0.0
17-02-2018 21:06 5 76 2.1 1025.5 2.5 3.6 W 1027.7 -1.7 2.1 0.0
17-02-2018 21:11 5 76 2.2 1025.5 1.1 2.5 W 1027.7 -1.6 2.2 0.0
17-02-2018 21:16 5 76 2.1 1025.4 1.1 3.6 W 1027.6 -1.7 2.1 0.0
17-02-2018 21:21 5 76 2.2 1025.3 1.1 2.5 SW 1027.5 -1.6 2.2 0.0
17-02-2018 21:26 5 77 1.9 1025.4 5.0 7.2 NWW 1027.6 -1.7 1.9 0.0
17-02-2018 21:31 5 77 1.7 1025.6 3.6 5.0 NEE 1027.8 -1.9 1.7 0.0
17-02-2018 21:36 5 77 1.7 1025.6 0.0 0.0 NEE 1027.8 -1.9 1.7 0.0
17-02-2018 21:41 5 78 1.6 1025.7 0.0 1.1 NEE 1027.9 -1.8 1.6 0.0
17-02-2018 21:46 5 78 1.6 1025.8 0.0 0.0 NEE 1028.0 -1.8 1.6 0.0
17-02-2018 21:51 5 78 1.7 1025.7 0.0 0.0 NEE 1027.9 -1.7 1.7 0.0
17-02-2018 21:56 5 78 1.7 1025.8 0.0 0.0 NEE 1028.0 -1.7 1.7 0.0
17-02-2018 22:01 5 78 1.7 1025.8 0.0 0.0 NEE 1028.0 -1.7 1.7 0.0
17-02-2018 22:06 5 78 1.7 1025.9 0.0 0.0 NEE 1028.1 -1.7 1.7 0.0
17-02-2018 22:11 5 78 1.7 1025.9 0.0 0.0 NEE 1028.1 -1.7 1.7 0.0
17-02-2018 22:16 5 78 1.7 1025.9 1.1 2.5 NEE 1028.1 -1.7 1.7 0.0
17-02-2018 22:21 5 78 1.8 1025.9 2.5 3.6 NEE 1028.1 -1.6 1.8 0.0
17-02-2018 22:26 5 78 1.8 1026.0 1.1 2.5 NEE 1028.2 -1.6 1.8 0.0
17-02-2018 22:31 5 78 1.7 1026.1 0.0 2.5 NEE 1028.3 -1.7 1.7 0.0
17-02-2018 22:36 5 77 1.5 1026.2 0.0 2.5 NW 1028.4 -2.1 1.5 0.0
17-02-2018 22:41 5 77 1.5 1026.2 1.1 2.5 W 1028.4 -2.1 1.5 0.0
17-02-2018 22:46 5 78 1.5 1026.3 2.5 3.6 W 1028.5 -1.9 1.5 0.0
17-02-2018 22:51 5 77 1.4 1026.4 2.5 3.6 NE 1028.6 -2.2 1.4 0.0
17-02-2018 22:56 5 77 1.3 1026.5 2.5 3.6 W 1028.7 -2.3 1.3 0.0
17-02-2018 23:01 5 78 1.3 1026.5 3.6 5.0 NW 1028.7 -2.1 1.3 0.0
17-02-2018 23:06 5 78 1.3 1026.6 3.6 5.0 W 1028.8 -2.1 1.3 0.0
17-02-2018 23:11 5 78 1.3 1026.5 2.5 3.6 W 1028.7 -2.1 1.3 0.0
17-02-2018 23:16 5 79 1.2 1026.6 2.5 3.6 NW 1028.8 -2.0 1.2 0.0
17-02-2018 23:21 5 79 1.2 1026.6 1.1 2.5 NW 1028.8 -2.0 1.2 0.0
17-02-2018 23:26 5 79 1.3 1026.7 1.1 2.5 W 1028.9 -1.9 1.3 0.0
17-02-2018 23:31 5 79 1.3 1026.7 1.1 3.6 W 1028.9 -1.9 1.3 0.0
17-02-2018 23:36 5 79 1.3 1026.7 2.5 3.6 W 1028.9 -1.9 1.3 0.0
17-02-2018 23:41 5 79 1.5 1026.7 0.0 0.0 W 1028.9 -1.7 1.5 0.0
17-02-2018 23:46 5 79 1.7 1026.8 1.1 2.5 W 1029.0 -1.5 1.7 0.0
17-02-2018 23:51 5 78 1.7 1026.8 1.1 2.5 W 1029.0 -1.7 1.7 0.0
17-02-2018 23:56 5 77 1.7 1026.9 1.1 2.5 W 1029.1 -1.9 1.7 0.0

                                                                             Tabelle: 07 : 00 UHR

STATIONHÖHELUFTD.TEMP.T-MinT-MaxU%RR1RR12SSSDDFFFXWetter+WolkenBöen
UFS TW Ems 0 1024.1 4.3 4.3 5.4 93 ---- --- --- S 14 --- --- ---
UFS Deutsche Bucht 0 1024.3 4.0 3.8 5.2 90 ---- --- --- S 14 --- --- ---
Helgoland 4 1024.2 3.9 3.8 4.9 79 0.0 0 0 S 3 13 --- ---
List/Sylt 26 1023.9 2.7 2.2 3.8 100 0.0 0 0 N 8 21 Dunst oder flacher Nebel ---
Schleswig 43 1024.6 0.8 0.8 3.3 100 0.0 0 0 S 6 10 Dunst oder flacher Nebel ---
Leuchtturm Kiel 5 1024.6 1.7 1.5 4.6 100 ---- --- --- SW 11 --- --- ---
Kiel 27 1024.7 1.7 1.5 4.2 100 0.0 0 0 W 5 15 --- ---
Fehmarn 3 1024.5 2.7 2.6 3.8 97 0.0 0 0 W 21 28 Dunst oder flacher Nebel ---
Arkona 42 1023.7 2.4 2.4 3.9 89 0.0 0 0 NW 16 25 leichter Regen ---
Norderney 11 1024.6 0.0 -0.2 3.8 99 0.0 0 0 S 12 15 Dunst oder flacher Nebel ---
Leuchtt. Alte Weser 32 1024.5 2.8 2.5 4.1 89 ---- --- --- SW 11 --- --- ---
Cuxhaven 5 1024.8 1.3 0.9 4.4 94 0.0 0 0 SW 11 15 Dunst oder flacher Nebel ---
Hamburg-Flh. 11 1025.2 0.7 -0.7 4.3 97 0.0 0 0 - 0 9 stark bewölkt ---
Schwerin 59 1025.0 1.0 1.0 3.2 95 0.0 0 0 SW 7 14 Dunst oder flacher Nebel ---
Rostock 4 1024.2 2.7 2.6 4.3 96 0.0 0 0 W 19 37 --- ---
Greifswald 2 1024.0 2.5 2.5 4.1 96 0.0 1 0 W 10 16 Regen ---
Emden 0 1024.7 -2.9 -4.1 2.5 99 0.0 0 0 S 9 11 Nebel ---
Bremen-Flh. 5 1025.7 -0.3 -2.9 2.4 96 0.0 0 0 SO 4 5 bedeckt ---
Lüchow 17 1025.6 -0.9 -0.9 2.9 98 0.0 0 1 S 3 4 Dunst oder flacher Nebel ---
Marnitz 81 1025.0 1.3 1.2 2.5 90 0.0 0 0 SW 8 15 --- ---
Waren 70 1024.8 1.8 1.7 3.4 90 0.0 0 0 W 6 10 --- ---
Neuruppin 38 1025.2 0.6 -0.3 2.5 91 0.0 0 --- W 5 14 --- ---
Angermünde 56 1024.8 0.9 0.0 2.9 89 0.0 0 0 W 10 16 bedeckt ---
Münster/Osnabr.-Flh. 48 1024.6 -2.3 -3.3 1.9 97 0.0 0 0 O 3 8 gering bewölkt ---
Hannover-Flh. 59 1025.7 -2.1 -3.0 4.3 98 0.0 0 0 O 4 5 Dunst oder flacher Nebel ---
Magdeburg 76 1026.1 -2.8 -2.8 2.9 97 0.0 0 0 S 4 6 Dunst oder flacher Nebel ---
Potsdam 81 1025.6 -0.5 -1.5 2.0 93 0.0 0 0 SW 13 15 bewölkt ---
Berlin-Tegel 37 1025.4 0.2 -1.5 1.5 88 0.0 0 0 W 7 11 bedeckt ---
Berlin-Tempelhof 48 1025.5 1.2 0.0 4.1 85 0.0 0 --- W 6 12 --- ---
Berlin-Dahlem 51 1025.3 0.5 -0.9 3.2 --- ---- 0 0 W 7 --- leichter Regen ---
Lindenberg 91 1025.6 -0.2 -1.6 3.3 89 0.0 0 0 W 8 12 Dunst oder flacher Nebel ---
Düsseldorf-Flh. 45 1023.7 -0.2 -2.8 3.4 85 0.0 0 0 O 8 17 stark bewölkt ---
Essen 150 1023.7 -0.2 -0.5 3.9 83 0.0 0 0 O 7 12 --- ---
Kahler Asten 839 ------ -3.4 -3.7 -2.5 84 0.0 0 20 O 22 32 --- ---
Bad Lippspringe 157 1024.8 -0.5 -2.6 1.8 85 0.0 0 0 O 8 10 Dunst oder flacher Nebel ---
Fritzlar 174 1025.7 -3.2 -3.3 0.4 91 ---- 0 0 NW 4 --- bewölkt ---
Brocken 1142 ------ -6.1 -6.7 -4.5 97 ---- 0 144 NO 8 9 gering bewölkt ---
Leipzig-Flh. 142 1026.2 -1.8 -1.8 1.0 92 0.0 0 0 S 8 13 stark bewölkt ---
Dresden-Flh. 227 1026.8 -2.1 -2.3 3.0 92 0.0 0 0 S 13 15 gering bewölkt ---
Cottbus 69 1026.0 -0.7 -3.3 3.0 89 0.0 0 0 SW 6 9 Dunst oder flacher Nebel ---
Görlitz 238 1026.8 -1.9 -1.9 2.1 91 0.0 0 0 SW 10 14 gering bewölkt ---
Aachen 231 1022.5 0.4 -1.1 3.9 89 0.0 0 0 O 16 20 --- ---
Nürburg 485 1022.6 -0.6 -2.6 2.0 83 0.0 0 1 O 14 23 --- ---
Köln/Bonn-Flh. 92 1023.2 0.5 -2.9 3.6 82 0.0 0 0 - 0 9 bedeckt ---
Gießen/Wettenberg 203 1024.5 -2.6 -3.3 2.6 95 0.0 0 0 O 7 10 Dunst oder flacher Nebel ---
Wasserkuppe 921 ------ -4.3 -5.3 -2.3 85 0.0 0 16 O 29 41 bewölkt ---
Meiningen 450 1025.8 -2.3 -2.3 -0.6 99 0.0 0 7 O 3 11 Nebel ---
Erfurt 316 1026.2 -2.8 -3.5 1.1 94 0.0 0 0 S 7 13 gering bewölkt ---
Gera 311 1026.7 -3.0 -3.2 1.0 91 0.0 0 0 S 9 12 Dunst oder flacher Nebel ---
Fichtelberg 1213 ------ -5.9 -6.4 -3.9 96 ---- 0 98 O 19 20 Nebel ---
Trier 265 1020.7 1.1 -1.3 3.4 80 0.0 0 0 NO 25 37 --- ---
Hahn-Flh. 497 1022.0 -0.5 -2.1 2.5 87 0.0 0 0 O 17 26 --- ---
Frankfurt/M-Flh. 112 1023.4 -0.1 -1.6 3.8 90 0.0 0 0 NO 12 18 bedeckt ---
OF-Wetterpark 119 1023.6 -0.2 -2.7 1.6 95 0.0 0 0 NO 8 11 Dunst oder flacher Nebel ---
Würzburg 268 1025.0 -1.1 -1.7 1.8 98 0.0 0 0 O 14 21 Dunst oder flacher Nebel ---
Bamberg 239 1025.7 -3.7 -4.8 -1.1 94 0.0 0 0 NO 3 5 Dunst oder flacher Nebel ---
Hof 567 1027.3 -5.7 -6.6 -1.2 99 ---- --- 2 SO 2 6 gefrierender Nebel ---
Weiden 438 1026.2 -4.9 -4.9 1.2 96 0.0 0 0 NO 5 6 Nebel ---
Saarbrücken-Flh. 320 1020.1 0.7 -0.6 3.8 91 0.1 0 0 O 14 30 Schneeregen ---
Karlsruhe-Rheinst. 116 1020.7 1.8 -0.1 3.6 87 0.0 0 0 NO 24 35 Dunst oder flacher Nebel ---
Mannheim 96 1022.2 3.3 -0.2 4.6 79 0.0 0 0 O 11 17 --- ---
Stuttgart-Flh. 371 1021.9 0.4 -3.3 4.1 90 0.0 0 0 NO 12 21 stark bewölkt ---
Öhringen 276 1022.8 1.0 -0.6 3.1 93 0.0 0 0 O 13 31 Dunst oder flacher Nebel ---
Nürnberg-Flh. 314 1025.1 -1.6 -2.4 1.3 95 0.0 0 0 NO 3 9 Dunst oder flacher Nebel ---
Regensburg 366 1024.6 -1.6 -1.6 0.8 97 0.0 0 0 NO 13 21 Dunst oder flacher Nebel ---
Straubing 351 1024.6 -2.0 -3.4 0.4 100 0.0 0 0 O 10 14 gefrierender Nebel ---
Großer Arber 1436 ------ -6.6 -7.7 -5.8 62 ---- --- --- SO 14 17 --- ---
Lahr 155 1019.3 1.7 0.7 5.5 97 0.3 0 0 N 10 14 leichter Regen ---
Freudenstadt 797 ------ -1.1 -1.2 1.6 100 0.0 0 1 O 12 17 leichter Schneefall ---
Stötten 734 1022.4 -1.9 -2.0 1.6 100 0.0 0 3 O 25 39 Nebel ---
Augsburg 462 1022.9 -0.7 -1.2 1.2 94 0.0 0 0 O 17 27 Dunst oder flacher Nebel ---
München-Flh. 444 1023.3 -1.1 -1.1 3.1 93 0.0 0 0 NO 14 21 Dunst oder flacher Nebel ---
Fürstenzell 476 1025.2 -2.6 -2.6 1.0 100 0.0 0 2 NO 9 17 gefrierender Nebel ---
Feldberg/Schw. 1486 ------ -1.4 -2.8 -0.1 96 3.9 6 144 SO 32 37 leichter Schneefall ---
Konstanz 443 1019.3 2.7 2.2 4.6 91 0.2 1 0 NO 5 12 leichter Regen ---
Kempten 705 1020.3 1.0 0.4 2.7 95 0.0 0 1 O 7 13 leichter Regen ---
Oberstdorf 806 ------ 0.1 0.0 1.7 98 0.0 0 12 NW 4 6 Nebel ---
Zugspitze 2960 ------ -6.6 -8.2 -6.2 91 ---- 0 400 W 40 64 stark bewölkt Windböen
Hohenpeißenberg 977 ------ -1.4 -1.4 0.4 99 0.0 0 4 NO 14 28 gefrierender Nebel ---

                                                                                               Tabelle: 19 : 00 UHR    

STATIONHÖHELUFTD.TEMP.T-MinT-MaxU%RR1RR12SSSDDFFFXWetter+WolkenBöen
UFS TW Ems 0 1025.1 1.3 0.9 4.7 100 ---- --- --- SO 18 --- --- ---
UFS Deutsche Bucht 26 1025.9 1.2 1.0 4.1 92 ---- --- --- SO 11 --- --- ---
Helgoland 4 1025.6 2.2 1.9 4.0 90 0.0 0 0 S 13 18 Dunst oder flacher Nebel ---
List/Sylt 26 1025.5 1.3 1.2 6.4 98 0.0 0 --- SW 12 17 Dunst oder flacher Nebel ---
Schleswig 43 1025.8 2.6 0.7 4.5 93 0.0 0 0 NO 4 8 Dunst oder flacher Nebel ---
Leuchtturm Kiel 5 1025.7 4.2 1.5 4.2 59 ---- --- --- O 7 --- --- ---
Kiel 27 1025.7 3.3 1.7 4.9 87 0.0 0 0 O 4 6 --- ---
Fehmarn 3 1025.8 3.6 2.5 4.5 71 0.0 0 0 NW 8 13 --- ---
Arkona 42 1025.5 2.5 2.2 3.7 85 0.0 0 0 NW 10 15 --- ---
Norderney 11 1025.6 0.6 -0.2 2.5 97 0.0 0 0 O 11 19 Dunst oder flacher Nebel ---
Leuchtt. Alte Weser 32 1025.7 1.6 1.1 3.1 94 ---- --- --- S 11 --- --- ---
Cuxhaven 5 1025.8 1.2 0.7 5.2 99 0.0 0 0 N 3 8 Dunst oder flacher Nebel ---
Hamburg-Flh 11 1025.8 3.3 0.4 5.6 68 0.0 0 0 NO 8 11 stark bewölkt ---
Schwerin 59 1025.8 2.7 0.9 4.4 82 0.0 0 0 NO 5 8 Dunst oder flacher Nebel ---
Rostock 4 1025.6 2.5 2.5 3.5 98 0.0 0 0 W 5 10 Dunst oder flacher Nebel ---
Greifswald 2 1025.5 2.1 2.0 4.6 89 0.0 0 0 NW 4 7 bedeckt ---
Emden 0 1025.5 -0.3 -4.3 5.2 96 0.0 0 0 O 5 8 Dunst oder flacher Nebel ---
Bremen-Flh. 5 1025.8 3.6 -0.3 5.6 80 0.0 0 0 N 6 8 bewölkt ---
Lüchow 17 1025.7 2.1 -1.1 5.2 80 0.0 0 0 N 2 5 --- ---
Marnitz 81 1025.7 2.0 1.1 5.0 79 0.0 0 0 NW 3 8 --- ---
Waren 70 1025.5 2.7 1.6 4.6 88 0.0 0 0 - 0 5 --- ---
Neuruppin 38 ------ --- --- --- --- ---- --- --- -- --- --- --- ---
Angermünde 56 1025.4 1.7 0.9 3.9 93 0.0 0 0 N 12 19 Regen ---
Münster/Osnabr.-Flh. 48 1025.2 2.4 -2.5 6.2 75 0.0 0 0 O 5 9 gering bewölkt ---
Hannover-Flh. 59 1025.6 0.7 -3.2 4.2 85 0.0 0 0 N 2 5 bewölkt ---
Magdeburg 76 1025.4 3.1 -3.1 5.3 70 0.0 0 0 N 5 13 --- ---
Potsdam 81 1024.9 2.3 -0.6 4.0 88 0.0 0 0 N 5 12 bedeckt ---
Berlin-Tegel 37 1025.0 3.9 0.1 4.9 76 0.0 0 0 N 6 9 bedeckt ---
Berlin-Tempelhof 48 1025.0 3.8 0.9 5.0 78 0.0 0 --- NO 11 17 --- ---
Berlin-Dahlem 51 1024.6 3.8 0.5 4.5 --- ---- 0 0 NO 11 --- bedeckt ---
Lindenberg 91 1024.7 2.0 -0.5 4.5 88 0.0 0 0 N 7 11 bedeckt ---
Düsseldorf-Flh. 45 1024.6 1.1 -1.3 6.1 75 0.0 0 0 O 8 13 gering bewölkt ---
Essen 150 1024.8 2.8 -0.2 5.2 67 0.0 0 0 O 8 14 wolkenlos ---
Kahler Asten 839 ------ -3.6 -3.7 -2.1 82 0.0 0 20 O 22 28 --- ---
Bad Lippspringe 157 1025.3 -0.2 -2.4 4.3 90 0.0 0 0 N 3 7 Dunst oder flacher Nebel ---
Fritzlar 174 1024.8 1.8 -3.1 3.5 71 ---- 0 0 N 7 --- stark bewölkt ---
Brocken 1142 ------ -5.6 -6.1 -4.1 97 ---- 0 143 NO 33 40 gefrierender Nebel ---
Leipzig-Flh. 142 1024.5 1.9 -2.3 3.8 82 0.0 0 0 N 9 12 bedeckt ---
Dresden-Flh. 227 1023.9 1.9 -2.2 4.2 70 0.0 0 0 NO 6 8 bedeckt ---
Cottbus 69 1024.1 3.3 -0.7 5.7 76 0.0 0 --- N 8 13 --- ---
Görlitz 238 1024.0 0.7 -2.8 3.8 74 0.0 0 0 N 6 9 bedeckt ---
Aachen 231 1024.6 1.1 -0.2 4.1 83 0.0 0 0 O 13 18 wolkenlos ---
Nürburg 485 1024.8 -0.3 -0.8 2.3 81 0.0 0 0 O 6 10 --- ---
Köln/Bonn-Flh. 92 1024.6 1.7 0.1 6.0 70 0.0 0 0 O 5 8 wolkenlos ---
Gießen/Wettenberg 203 1024.2 1.3 -2.6 2.9 73 0.0 0 0 NO 14 25 --- ---
Wasserkuppe 921 ------ -3.9 -4.6 -2.4 86 0.0 0 15 NO 17 28 stark bewölkt ---
Meiningen 450 1024.4 -1.0 -2.8 1.6 81 0.0 0 7 N 11 18 --- ---
Erfurt 316 1024.7 -0.3 -3.3 1.2 92 0.0 0 0 NO 6 13 gering bewölkt ---
Gera 311 1024.2 0.6 -3.2 2.5 83 0.0 0 0 NO 10 15 Dunst oder flacher Nebel ---
Fichtelberg 1213 ------ -6.1 -6.5 -5.4 95 ---- 0 98 NO 27 34 gefrierender Nebel ---
Trier 265 1024.3 1.6 0.9 4.1 83 0.0 0 0 O 13 18 --- ---
Hahn-Flh. 497 1024.7 -1.2 -1.9 0.8 91 0.0 0 0 NO 5 10 --- ---
Frankfurt/M-Flh. 112 1023.7 3.0 -0.1 4.2 67 0.0 0 0 N 12 30 stark bewölkt ---
OF-Wetterpark 119 1023.6 2.0 -0.4 3.3 78 0.0 0 0 N 7 15 --- ---
Würzburg 268 1023.2 1.6 -1.3 1.6 79 0.0 0 0 N 7 12 --- ---
Bamberg 239 1022.7 1.5 -3.8 2.3 80 0.0 0 0 N 6 13 --- ---
Hof 567 1023.2 -0.5 -6.2 0.4 78 ---- --- 1 NO 8 21 --- ---
Weiden 438 1022.3 -0.4 -4.9 0.9 80 0.0 0 0 NO 15 26 --- ---
Saarbrücken-Flh. 320 1024.1 0.7 0.0 1.1 92 0.0 4 1 NO 11 15 Schneefall ---
Karlsruhe-Rheinst. 116 1023.6 1.1 0.6 2.7 94 0.6 6 0 N 17 23 leichter Schneefall ---
Mannheim 96 1023.5 2.5 2.1 3.5 83 0.0 1 0 NW 7 16 --- ---
Stuttgart-Flh. 371 1022.2 0.1 0.1 1.6 96 0.2 6 6 N 9 17 leichter Schneefall ---
Öhringen 276 1022.9 0.4 0.3 1.6 94 0.0 5 0 NO 7 18 Schneefall ---
Nürnberg-Flh. 314 1022.4 0.7 -1.6 1.1 91 0.0 0 0 N 7 11 bedeckt ---
Regensburg 366 1021.2 -0.3 -1.7 0.4 97 0.8 6 5 N 13 22 leichter Schneefall ---
Straubing 351 1020.5 -0.2 -2.4 0.1 98 0.7 3 2 N 14 19 leichter Schneefall ---
Großer Arber 1436 ------ -7.3 -7.3 -3.9 95 ---- --- --- NO 25 37 leichter Schneefall ---
Lahr 155 1023.0 0.5 0.5 2.2 98 0.6 17 0 N 7 10 leichter Schneefall ---
Freudenstadt 797 ------ -2.2 -2.2 -1.1 99 0.4 18 21 NO 9 20 leichter Schneefall ---
Stötten 734 1022.1 -2.2 -2.4 -1.4 100 0.2 4 9 NO 11 23 leichter Schneefall ---
Augsburg 462 1021.2 -0.8 -1.0 -0.4 96 0.3 9 9 NO 13 18 leichter Schneefall ---
München-Flh. 444 1020.4 -0.5 -1.2 0.3 97 0.7 8 6 N 5 13 leichter Schneefall ---
Fürstenzell 476 1020.2 -0.7 -2.7 1.8 100 1.2 4 7 N 8 11 Schneefall ---
Feldberg/Schw. 1486 ------ -4.2 -4.2 0.3 93 1.0 20 148 W 20 33 Schneefall ---
Konstanz 443 1021.3 0.3 0.3 3.3 94 1.0 17 0 N 5 12 Schneefall ---
Kempten 705 1020.4 -0.3 -0.3 4.1 96 1.1 7 1 NW 9 18 Schneefall ---
Oberstdorf 806 ------ 2.8 0.0 3.9 92 0.6 2 11 O 4 21 leichter Regen ---
Zugspitze 2960 ------ -7.8 -7.8 -4.8 92 ---- 2 400 NW 38 57 leichter Schneefall Windböen
Hohenpeißenberg 977 ------ -2.2 -2.2 -0.1 97 0.2 4 4 N 19 24 leichter Schneefall ---

                                                                               

  • Temperatur
  • Wetterzustand
  • Windrichtung und -geschwindigkeit
  • Luftdruck
  • relative Luftfeuchtigkeit
  • Sichtweite
  • Gesamtbedeckungsgrad
  • Niederschlag
  • Sonnenscheindauer

 Höhe:     m über NN
Luftd.:   auf Meereshöhe reduzierter Luftdruck in hPa
TEMP.:   Lufttemperatur in Grad Celsius
T-MIN:   Minimumtemperatur der Luft in 2m Höhe in Grad Celsius, von 18 UTC Vortag bis 06 UTC heute
T-MAX:  Maximumtemperatur der Luft in 2m Höhe in Grad Celsius, von 18 UTC Vortag bis 06 UTC heute
RR1:     Niederschlagsmenge, einstündig, mm ist gleich Liter pro
RR12:   Niederschlagsmenge, 12 stündig, 18 UTC Vortag bis 06 UTC heute in mm ist gleich Liter pro
SSS:     Gesamtschneehöhe
DD:      Windrichtung
FF:       Windgeschwindigkeit letztes 10-Minutenmittel in km/h
FX:       höchste Windspitze während der letzten Stunde in km/h
---:      Wert nicht vorhanden

 

2009-2018

Unwetterwarnungen

 

Radarbild          
aktueller Radarfilm Deutschland

Europa-Meteoalarm